الصفحة الرئيسية
METAR-TAF:

METAR-TAF

مطار :

والس, فرنسا

دائرة عرض: 13-14S, خط طول: 176-10W, ارتفاع: 23 متر

مراقبة الطقس الحالي

تاريخ ووقت الإصدار 19 دقيقة قبل الساعة 04:00UTC
ريح 2 عقدةمن اتجاهات متغيرة
درجة الحرارة 28°درجة مئوية
الرطوبة 79%
ضغط 1007 hPa
الرؤية 10 كم أو أكثر

METAR: NLWW 140400Z AUTO VRB02KT 9999 BKN031/// OVC039/// 28/24 Q1007 NOSIG

زمن: 16:19 (04:19 UTC)

توقعات

تاريخ ووقت الإصدار 5ساعات و 19 دقيقة قبل الساعة 23:00UTC
التوقعات صالحة من14 الساعة 00 UTC إلى 14 الساعة 24 UTC
ريح 2 عقدةمن اتجاهات متغيرة
الرؤية 10 كم أو أكثر
غيوم قليلة على ارتفاع 2500 قدم
غيوم متفرقة على ارتفاع 5000 قدم

TAF: NLWW 132300Z 1400/1424 VRB02KT 9999 FEW025 SCT050

أرصاد الطقس والتوقعات من أكثر من 4000 مطار (تقارير الطقس للمطار METAR والتنبؤ بالطقس بالمطارTAF).

المحطات المتاحة هي النقط الصفراء والحمراء على الخريطة.

حرك المؤشر فوق النقطة لمعرفة اسم المحطة.

ثم انقر لمعرفة أرصاد وتوقعات الطقس.

لتغيير الخارطة: اضغط على الأزرار الخضراء مع رمز الصليب الأسود للتكبير. على الزر الأخضر مع شرطة للتصغير، أو على الأسهم الخضراء للخرائط المجاورة.


METAR-TAF: